VTBD/DMK METAR and TAF weather

Enter ICAO airport designator
Station Type Date Time Source
VTBD METAR 2020/09/23 19:00 UTC NOAA

VTBD 231900Z 27006KT 240V300 9999 FEW020 SCT040 BKN080 25/24 Q1010 NOSIG


Station Type Date Time Source
VTBD Decoded METAR 2020/09/23 19:00 UTC NOAA

Don Muang, Thailand (VTBD) 13-55N 100-36E 12M
Sep 23, 2020 - 03:00 PM EDT / 2020.09.23 1900 UTC
Wind: from the W (270 degrees) at 7 MPH (6 KT) (direction variable):0
Visibility: greater than 7 mile(s):0
Sky conditions: mostly cloudy
Temperature: 77 F (25 C)
Dew Point: 75 F (24 C)
Relative Humidity: 94%
Pressure (altimeter): 29.83 in. Hg (1010 hPa)
ob: VTBD 231900Z 27006KT 240V300 9999 FEW020 SCT040 BKN080 25/24 Q1010 NOSIG
cycle: 19

Station Type Date Time Source
VTBD TAF 2020/09/23 18:36 UTC NOAA

TAF TAF VTBD 231700Z 2318/2424 12005KT 8000 FEW020 BKN100
BECMG 2403/2405 21008KT 9999 FEW020
TEMPO 2408/2412 25015KT 6000 -TSRA FEW018CB SCT030 BKN100
BECMG 2416/2418 12005KT

Example: see airport list